createdAt,value
2023-11-04T10:28:00.441Z,13.30
2023-11-04T10:30:47.140Z,13.30
2023-11-04T10:33:36.950Z,13.40
2023-11-04T10:36:24.626Z,13.50
2023-11-04T10:39:15.296Z,13.50
2023-11-04T10:42:09.463Z,13.40
2023-11-04T10:45:03.467Z,13.30
2023-11-04T10:48:00.113Z,13.40
2023-11-04T10:50:52.431Z,13.40
2023-11-04T10:53:43.264Z,13.30
2023-11-04T10:56:36.125Z,13.40
2023-11-04T10:59:33.865Z,13.40
2023-11-04T11:02:22.381Z,13.40
2023-11-04T11:05:12.454Z,13.40
2023-11-04T11:07:59.834Z,13.20
2023-11-04T11:10:52.095Z,13.10
2023-11-04T11:13:40.295Z,13.00
2023-11-04T11:16:27.534Z,12.90
2023-11-04T11:19:15.933Z,12.90
2023-11-04T11:22:06.409Z,13.00
2023-11-04T11:24:56.451Z,13.10
2023-11-04T11:27:46.711Z,13.10
2023-11-04T11:30:39.353Z,13.30
2023-11-04T11:33:31.015Z,13.50
2023-11-04T11:36:20.242Z,13.70
2023-11-04T11:39:07.300Z,13.70
2023-11-04T11:41:54.329Z,13.70
2023-11-04T11:44:41.892Z,13.70
2023-11-04T11:47:28.586Z,13.60
2023-11-04T11:50:16.979Z,13.40
2023-11-04T11:53:06.258Z,13.40
2023-11-04T11:56:02.452Z,13.30
2023-11-04T11:58:50.106Z,13.30
2023-11-04T12:01:37.169Z,13.20
2023-11-04T12:04:25.864Z,13.40
2023-11-04T12:07:19.626Z,13.30
2023-11-04T12:10:10.501Z,13.10
2023-11-04T12:13:00.312Z,13.00
2023-11-04T12:15:47.754Z,13.00
2023-11-04T12:18:34.454Z,12.90
2023-11-04T12:21:22.084Z,12.90
2023-11-04T12:24:09.794Z,12.90
2023-11-04T12:26:59.652Z,12.80
2023-11-04T12:29:46.042Z,12.90
2023-11-04T12:32:32.354Z,12.80
2023-11-04T12:35:19.018Z,12.70
2023-11-04T12:38:05.538Z,12.60
2023-11-04T12:40:54.008Z,12.60
2023-11-04T12:43:44.890Z,12.50
2023-11-04T12:46:32.129Z,12.50
2023-11-04T12:49:19.011Z,12.40
2023-11-04T12:52:08.096Z,12.50
2023-11-04T12:54:54.874Z,12.40
2023-11-04T12:57:43.629Z,12.40
2023-11-04T13:00:32.273Z,12.40
2023-11-04T13:03:19.801Z,12.40
2023-11-04T13:06:07.761Z,12.40
2023-11-04T13:08:56.002Z,12.30
2023-11-04T13:11:42.971Z,12.30
2023-11-04T13:14:30.456Z,12.30
2023-11-04T13:17:21.633Z,12.30
2023-11-04T13:20:09.063Z,12.40
2023-11-04T13:22:55.633Z,12.40
2023-11-04T13:25:43.651Z,12.20
2023-11-04T13:28:31.058Z,12.30
2023-11-04T13:31:18.089Z,12.20
2023-11-04T13:34:06.487Z,12.10
2023-11-04T13:36:53.132Z,12.00
2023-11-04T13:39:45.898Z,12.10
2023-11-04T13:42:32.482Z,12.10
2023-11-04T13:45:19.918Z,12.10
2023-11-04T13:48:07.077Z,12.20
2023-11-04T13:50:54.935Z,12.20
2023-11-04T13:53:44.457Z,12.20
2023-11-04T13:56:32.435Z,12.20
2023-11-04T13:59:20.916Z,12.30
2023-11-04T14:02:07.782Z,12.20
2023-11-04T14:04:56.121Z,12.20
2023-11-04T14:07:44.588Z,12.30
2023-11-04T14:10:31.161Z,12.30
2023-11-04T14:13:19.309Z,12.30
2023-11-04T14:16:06.704Z,12.40
2023-11-04T14:18:55.756Z,12.30
2023-11-04T14:21:43.706Z,12.30
2023-11-04T14:24:35.293Z,12.30
2023-11-04T14:27:21.926Z,12.30
2023-11-04T14:30:09.840Z,12.30
2023-11-04T14:32:56.594Z,12.20
2023-11-04T14:35:43.066Z,12.20
2023-11-04T14:38:29.524Z,12.10
2023-11-04T14:41:19.168Z,12.10
2023-11-04T14:44:06.906Z,12.00
2023-11-04T14:46:53.236Z,11.90
2023-11-04T14:49:39.630Z,11.90
2023-11-04T14:52:26.743Z,11.90
2023-11-04T14:55:13.554Z,11.90
2023-11-04T14:58:01.185Z,11.80
2023-11-04T15:00:47.684Z,11.80
2023-11-04T15:03:34.094Z,11.80
2023-11-04T15:06:20.469Z,11.70
2023-11-04T15:09:08.606Z,11.60
2023-11-04T15:11:56.132Z,11.50
2023-11-04T15:14:44.237Z,11.50
2023-11-04T15:17:30.828Z,11.50
2023-11-04T15:20:17.643Z,11.40
2023-11-04T15:23:05.183Z,11.30
2023-11-04T15:25:52.529Z,11.30
2023-11-04T15:28:39.164Z,11.30
